createdAt,value
2019-04-10T00:00:53.060Z,24.75
2019-04-10T00:03:31.978Z,24.43
2019-04-10T00:05:56.217Z,26.60
2019-04-10T00:08:26.539Z,27.15
2019-04-10T00:10:56.843Z,29.52
2019-04-10T00:13:28.854Z,24.77
2019-04-10T00:15:59.193Z,24.47
2019-04-10T00:18:29.782Z,26.85
2019-04-10T00:21:00.874Z,29.90
2019-04-10T00:23:33.173Z,31.37
2019-04-10T00:26:03.641Z,26.23
2019-04-10T00:28:33.961Z,28.10
2019-04-10T00:31:05.235Z,29.25
2019-04-10T00:33:36.539Z,32.48
2019-04-10T00:36:07.955Z,27.42
2019-04-10T00:38:38.274Z,29.10
2019-04-10T00:41:08.530Z,27.70
2019-04-10T00:43:39.961Z,31.45
2019-04-10T00:46:10.470Z,35.38
2019-04-10T00:48:41.750Z,34.75
2019-04-10T00:51:12.143Z,33.20
2019-04-10T00:53:43.426Z,33.53
2019-04-10T00:56:14.569Z,33.18
2019-04-10T00:58:45.705Z,32.98
2019-04-10T01:01:16.174Z,35.35
2019-04-10T01:03:48.126Z,32.85
2019-04-10T01:06:18.362Z,36.23
2019-04-10T01:08:50.946Z,39.35
2019-04-10T01:11:21.069Z,36.55
2019-04-10T01:13:51.719Z,34.90
2019-04-10T01:16:22.970Z,39.38
2019-04-10T01:18:53.563Z,41.05
2019-04-10T01:21:23.673Z,37.23
2019-04-10T01:23:55.227Z,38.45
2019-04-10T01:26:25.733Z,37.20
2019-04-10T01:28:56.058Z,38.55
2019-04-10T01:31:26.833Z,40.95
2019-04-10T01:33:57.054Z,43.80
2019-04-10T01:36:27.218Z,41.00
2019-04-10T01:38:57.857Z,41.65
2019-04-10T01:41:28.193Z,45.40
2019-04-10T01:43:59.310Z,42.95
2019-04-10T01:46:32.298Z,50.20
2019-04-10T01:49:01.741Z,48.05
2019-04-10T01:51:32.855Z,47.88
2019-04-10T01:54:03.186Z,48.48
2019-04-10T01:56:35.125Z,48.83
2019-04-10T01:59:05.622Z,49.83
2019-04-10T02:01:43.515Z,49.58
2019-04-10T02:04:14.769Z,51.45
2019-04-10T02:06:45.392Z,52.08
2019-04-10T02:09:15.756Z,50.73
2019-04-10T02:11:46.129Z,57.13
2019-04-10T02:14:16.486Z,45.75
2019-04-10T02:16:47.304Z,47.25
2019-04-10T02:19:18.409Z,47.30
2019-04-10T02:21:49.595Z,50.15
2019-04-10T02:24:19.843Z,48.20
2019-04-10T02:26:50.215Z,51.48
2019-04-10T02:29:20.521Z,50.52
2019-04-10T02:31:52.661Z,46.98
2019-04-10T02:34:23.257Z,50.75
2019-04-10T02:36:55.281Z,49.18
2019-04-10T02:39:32.408Z,49.18
2019-04-10T02:41:58.370Z,50.48
2019-04-10T02:44:30.483Z,50.10
2019-04-10T02:47:02.155Z,45.63
2019-04-10T02:49:32.749Z,50.05
2019-04-10T02:52:04.009Z,49.30
2019-04-10T02:54:35.702Z,52.75
2019-04-10T02:57:07.333Z,53.73
2019-04-10T02:59:37.756Z,55.23
2019-04-10T03:02:08.569Z,53.25
2019-04-10T03:04:40.365Z,54.63
2019-04-10T03:07:11.583Z,50.28
2019-04-10T03:09:58.974Z,53.83
2019-04-10T03:12:14.526Z,55.17
2019-04-10T03:14:47.471Z,60.92
2019-04-10T03:17:17.710Z,55.33
2019-04-10T03:19:47.934Z,60.45
2019-04-10T03:22:18.765Z,55.05
2019-04-10T03:24:49.072Z,46.15
2019-04-10T03:27:19.256Z,47.90
2019-04-10T03:29:49.482Z,48.40
2019-04-10T03:32:35.400Z,50.58
2019-04-10T03:35:20.722Z,50.43
2019-04-10T03:37:51.053Z,50.38
2019-04-10T03:40:21.669Z,51.13
2019-04-10T03:42:52.954Z,47.40
2019-04-10T03:45:24.305Z,48.25
2019-04-10T03:47:55.673Z,47.40
2019-04-10T03:50:26.004Z,50.48
2019-04-10T03:52:57.917Z,52.78
2019-04-10T03:55:29.166Z,50.88
2019-04-10T03:57:59.366Z,53.68
2019-04-10T04:00:30.013Z,47.33
2019-04-10T04:03:00.272Z,53.25
2019-04-10T04:05:30.853Z,50.95
2019-04-10T04:08:01.309Z,47.40
2019-04-10T04:10:31.693Z,51.05
2019-04-10T04:13:04.543Z,48.25
2019-04-10T04:15:34.037Z,49.58
2019-04-10T04:18:05.331Z,56.98
2019-04-10T04:20:35.556Z,51.50
2019-04-10T04:23:05.928Z,58.23
2019-04-10T04:25:36.592Z,48.65
2019-04-10T04:28:07.019Z,49.10
2019-04-10T04:30:38.912Z,46.48
2019-04-10T04:33:10.838Z,55.03
2019-04-10T04:35:44.292Z,50.12
2019-04-10T04:38:16.342Z,48.38
2019-04-10T04:40:46.894Z,49.10
2019-04-10T04:43:17.225Z,44.63
2019-04-10T04:45:48.374Z,42.20
2019-04-10T04:48:19.496Z,44.23
2019-04-10T04:50:50.035Z,44.98
2019-04-10T04:53:21.315Z,40.95
2019-04-10T04:55:51.528Z,44.25
2019-04-10T04:58:22.266Z,38.25
2019-04-10T05:00:52.395Z,41.10
2019-04-10T05:03:22.832Z,37.53
2019-04-10T05:05:53.961Z,36.20
2019-04-10T05:08:24.217Z,35.15
2019-04-10T05:10:54.304Z,38.53
2019-04-10T05:13:24.548Z,38.38
2019-04-10T05:15:55.459Z,36.10
2019-04-10T05:18:25.722Z,35.43
2019-04-10T05:20:56.722Z,40.20
2019-04-10T05:23:27.047Z,38.02
2019-04-10T05:25:58.996Z,38.05
2019-04-10T05:28:29.956Z,37.78
2019-04-10T05:31:01.050Z,36.50
2019-04-10T05:33:31.287Z,36.63
2019-04-10T05:36:01.545Z,37.03
2019-04-10T05:38:31.883Z,36.03
2019-04-10T05:41:13.346Z,37.03
2019-04-10T05:43:44.609Z,34.18
2019-04-10T05:46:21.446Z,37.90
2019-04-10T05:48:52.456Z,37.48
2019-04-10T05:51:23.335Z,36.58
2019-04-10T05:53:55.274Z,36.77
2019-04-10T05:56:25.869Z,41.53
2019-04-10T05:58:57.345Z,34.63
2019-04-10T06:01:35.218Z,38.30
2019-04-10T06:03:59.673Z,38.45
2019-04-10T06:06:30.658Z,36.35
2019-04-10T06:09:02.580Z,39.20
2019-04-10T06:11:37.371Z,45.52
2019-04-10T06:14:18.106Z,40.58
2019-04-10T06:16:50.958Z,42.03
2019-04-10T06:19:22.030Z,43.08
2019-04-10T06:21:52.586Z,41.20
2019-04-10T06:24:22.755Z,35.20
2019-04-10T06:26:54.059Z,38.20
2019-04-10T06:29:24.538Z,34.23
2019-04-10T06:31:54.863Z,40.88
2019-04-10T06:34:25.079Z,32.55
2019-04-10T06:36:55.266Z,37.00
2019-04-10T06:39:25.460Z,34.67
2019-04-10T06:41:56.109Z,32.83
2019-04-10T06:44:26.425Z,35.83
2019-04-10T06:46:57.074Z,37.67
2019-04-10T06:49:27.395Z,37.53
2019-04-10T06:51:57.764Z,33.02
2019-04-10T06:54:28.879Z,34.95
2019-04-10T06:56:59.134Z,33.25
2019-04-10T06:59:30.356Z,33.33
2019-04-10T07:02:13.112Z,37.53
2019-04-10T07:04:44.210Z,35.80
2019-04-10T07:07:09.340Z,33.38
2019-04-10T07:09:37.826Z,36.40
2019-04-10T07:12:08.307Z,36.85
2019-04-10T07:14:40.942Z,41.18
2019-04-10T07:17:11.252Z,33.60
2019-04-10T07:19:44.023Z,34.85
2019-04-10T07:22:15.833Z,36.42
2019-04-10T07:24:46.166Z,34.88
2019-04-10T07:27:16.441Z,34.63
2019-04-10T07:29:50.786Z,37.58
2019-04-10T07:32:19.469Z,32.70
2019-04-10T07:34:50.883Z,37.03
2019-04-10T07:37:23.035Z,35.43
2019-04-10T07:39:53.061Z,34.15
2019-04-10T07:42:28.396Z,27.87
2019-04-10T07:44:56.399Z,26.02
2019-04-10T07:47:27.229Z,24.98
2019-04-10T07:49:59.508Z,28.70
2019-04-10T07:52:29.614Z,30.80
2019-04-10T07:55:00.902Z,25.32
2019-04-10T07:57:31.421Z,26.50
2019-04-10T08:00:02.910Z,25.23
2019-04-10T08:02:36.712Z,23.05
2019-04-10T08:05:08.196Z,24.55
2019-04-10T08:07:39.319Z,24.67
2019-04-10T08:10:10.296Z,26.80
2019-04-10T08:12:47.633Z,21.45
2019-04-10T08:15:13.340Z,27.20
2019-04-10T08:17:44.438Z,28.90
2019-04-10T08:20:15.984Z,27.62
2019-04-10T08:22:46.858Z,27.17
2019-04-10T08:25:18.349Z,27.25
2019-04-10T08:27:48.691Z,23.67
2019-04-10T08:30:19.566Z,27.67
2019-04-10T08:32:57.050Z,31.80
2019-04-10T08:35:21.705Z,22.75
2019-04-10T08:37:52.789Z,26.30
2019-04-10T08:40:23.234Z,24.25
2019-04-10T08:42:53.538Z,24.70
2019-04-10T08:45:35.792Z,20.90
2019-04-10T08:47:57.622Z,26.65
2019-04-10T08:50:28.118Z,28.67
2019-04-10T08:52:58.425Z,26.12
2019-04-10T08:55:28.581Z,24.23
2019-04-10T08:57:58.733Z,23.27
2019-04-10T09:00:30.050Z,24.50
2019-04-10T09:03:00.395Z,24.35
2019-04-10T09:05:30.613Z,27.05
2019-04-10T09:08:01.025Z,23.95
2019-04-10T09:10:31.629Z,20.72
2019-04-10T09:13:02.046Z,25.10
2019-04-10T09:15:32.259Z,28.55
2019-04-10T09:18:02.511Z,27.27
2019-04-10T09:20:33.061Z,30.10
2019-04-10T09:23:27.766Z,26.85
2019-04-10T09:25:35.541Z,31.65
2019-04-10T09:28:06.454Z,29.00
2019-04-10T09:30:37.227Z,26.82
2019-04-10T09:33:18.709Z,29.57
2019-04-10T09:35:40.459Z,28.30
2019-04-10T09:38:10.654Z,29.15
2019-04-10T09:40:42.577Z,31.82
2019-04-10T09:43:14.226Z,36.17
2019-04-10T09:45:45.850Z,36.85
2019-04-10T09:48:16.546Z,36.88
2019-04-10T09:50:46.674Z,37.78
2019-04-10T09:53:17.130Z,38.60
2019-04-10T09:55:47.227Z,35.58
2019-04-10T09:58:18.470Z,36.65
2019-04-10T10:00:48.627Z,34.05
2019-04-10T10:03:19.463Z,30.10
2019-04-10T10:05:49.715Z,30.32
2019-04-10T10:08:20.479Z,35.98
2019-04-10T10:10:50.720Z,31.85
2019-04-10T10:13:21.397Z,32.03
2019-04-10T10:15:51.622Z,36.17
2019-04-10T10:18:21.789Z,35.85
2019-04-10T10:20:52.292Z,38.17
2019-04-10T10:23:22.540Z,35.95
2019-04-10T10:25:53.282Z,35.10
2019-04-10T10:28:23.851Z,35.78
2019-04-10T10:30:53.952Z,34.10
2019-04-10T10:33:24.056Z,32.03
2019-04-10T10:35:54.222Z,35.65
2019-04-10T10:38:25.667Z,35.92
2019-04-10T10:40:56.959Z,43.87
2019-04-10T10:43:27.343Z,37.48
2019-04-10T10:45:58.794Z,34.48
2019-04-10T10:48:29.558Z,31.80
2019-04-10T10:50:59.799Z,34.23
2019-04-10T10:53:30.383Z,34.25
2019-04-10T10:56:00.623Z,33.02
2019-04-10T10:58:30.792Z,37.73
2019-04-10T11:01:00.967Z,39.90
2019-04-10T11:03:32.066Z,35.03
2019-04-10T11:06:04.093Z,33.28
2019-04-10T11:08:35.285Z,33.48
2019-04-10T11:11:06.296Z,31.68
2019-04-10T11:13:37.143Z,37.90
2019-04-10T11:16:07.581Z,34.53
2019-04-10T11:18:38.280Z,38.23
2019-04-10T11:21:11.580Z,39.10
2019-04-10T11:23:40.364Z,37.78
2019-04-10T11:26:11.088Z,36.95
2019-04-10T11:28:41.892Z,36.77
2019-04-10T11:31:13.539Z,36.08
2019-04-10T11:33:49.822Z,33.80
2019-04-10T11:36:17.435Z,32.78
2019-04-10T11:38:49.257Z,34.92
2019-04-10T11:41:20.962Z,33.42
2019-04-10T11:43:52.780Z,35.58
2019-04-10T11:46:25.288Z,33.40
2019-04-10T11:48:55.553Z,35.55
2019-04-10T11:51:30.244Z,35.55
2019-04-10T11:53:59.197Z,35.95
2019-04-10T11:56:30.641Z,38.08
2019-04-10T11:59:01.753Z,40.50
2019-04-10T12:01:34.263Z,36.70
2019-04-10T12:04:08.206Z,42.08
2019-04-10T12:06:39.358Z,38.20
2019-04-10T12:09:45.249Z,39.35
2019-04-10T12:11:42.049Z,38.58
2019-04-10T12:14:13.199Z,41.23
2019-04-10T12:16:43.575Z,40.43
2019-04-10T12:19:13.762Z,40.33
2019-04-10T12:21:44.248Z,38.50
2019-04-10T12:24:14.549Z,39.95
2019-04-10T12:26:44.863Z,28.15
2019-04-10T12:29:16.221Z,22.05
2019-04-10T12:31:46.456Z,30.15
2019-04-10T12:34:16.702Z,29.77
2019-04-10T12:36:47.132Z,30.72
2019-04-10T12:39:18.311Z,27.13
2019-04-10T12:41:48.913Z,31.07
2019-04-10T12:44:21.267Z,34.95
2019-04-10T12:46:51.656Z,45.67
2019-04-10T12:49:21.889Z,41.58
2019-04-10T12:53:23.359Z,19.55
2019-04-10T12:55:53.664Z,36.55
2019-04-10T12:58:23.767Z,37.65
2019-04-10T13:00:54.235Z,24.40
2019-04-10T13:03:33.358Z,24.37
2019-04-10T13:06:09.548Z,14.47
2019-04-10T13:08:57.060Z,27.15
2019-04-10T13:11:14.199Z,32.60
2019-04-10T13:13:44.608Z,35.65
2019-04-10T13:16:16.595Z,36.65
2019-04-10T13:18:47.518Z,37.63
2019-04-10T13:21:22.289Z,26.93
2019-04-10T13:23:59.442Z,36.40
2019-04-10T13:26:30.484Z,42.38
2019-04-10T13:29:03.907Z,47.38
2019-04-10T13:31:35.151Z,45.88
2019-04-10T13:34:05.544Z,48.58
2019-04-10T13:36:35.692Z,44.77
2019-04-10T13:39:06.733Z,39.23
2019-04-10T13:41:36.965Z,38.15
2019-04-10T13:44:07.212Z,40.85
2019-04-10T13:46:40.615Z,44.30
2019-04-10T13:49:11.573Z,36.63
2019-04-10T13:51:57.303Z,34.70
2019-04-10T13:57:47.292Z,34.95
2019-04-10T14:00:23.921Z,28.70
2019-04-10T14:02:54.428Z,25.60
2019-04-10T14:05:25.471Z,23.98
2019-04-10T14:08:06.556Z,24.75
2019-04-10T14:10:58.476Z,24.72
2019-04-10T14:13:35.819Z,22.87
2019-04-10T14:16:10.671Z,24.20
2019-04-10T14:21:37.372Z,28.38
2019-04-10T14:24:39.121Z,30.75
2019-04-10T14:30:09.112Z,31.48
2019-04-10T14:35:53.700Z,34.60
2019-04-10T14:38:41.176Z,31.93
2019-04-10T14:41:17.858Z,30.08
2019-04-10T14:50:39.957Z,25.17
2019-04-10T14:52:34.984Z,21.07
2019-04-10T14:57:59.391Z,16.48
2019-04-10T15:00:42.306Z,18.25
2019-04-10T15:03:31.154Z,18.15
2019-04-10T16:37:58.192Z,12.07
2019-04-10T16:40:29.829Z,10.32
2019-04-10T16:43:01.453Z,9.43
2019-04-10T16:45:32.770Z,11.50
2019-04-10T16:48:03.127Z,10.65
2019-04-10T16:50:38.361Z,8.65
2019-04-10T16:53:09.752Z,11.08
2019-04-10T16:55:41.012Z,9.58
2019-04-10T16:58:13.796Z,7.62
2019-04-10T17:00:45.215Z,7.72
2019-04-10T17:03:17.565Z,19.75
2019-04-10T17:05:49.997Z,7.33
2019-04-10T17:08:21.751Z,8.33
2019-04-10T17:10:52.448Z,7.87
2019-04-10T17:13:24.631Z,7.53
2019-04-10T17:15:55.591Z,10.23
2019-04-10T17:18:27.480Z,7.37
2019-04-10T17:20:57.928Z,6.80
2019-04-10T17:23:28.868Z,6.25
2019-04-10T17:26:00.378Z,7.10
2019-04-10T17:28:32.313Z,8.00
2019-04-10T17:31:04.361Z,8.25
2019-04-10T17:33:36.060Z,8.48
2019-04-10T17:36:07.622Z,7.62
2019-04-10T17:38:38.610Z,9.03
2019-04-10T17:41:09.192Z,8.58
2019-04-10T17:43:39.647Z,9.05
2019-04-10T17:46:11.018Z,7.87
2019-04-10T17:48:42.049Z,8.08
2019-04-10T17:51:12.439Z,10.95
2019-04-10T17:53:42.713Z,10.70
2019-04-10T17:56:13.843Z,10.18
2019-04-10T17:58:45.585Z,12.55
2019-04-10T18:01:18.770Z,12.68
2019-04-10T18:03:54.836Z,11.85
2019-04-10T18:06:21.443Z,9.95
2019-04-10T18:08:51.860Z,11.85
2019-04-10T18:11:22.587Z,11.97
2019-04-10T18:13:53.086Z,12.78
2019-04-10T18:16:23.542Z,10.60
2019-04-10T18:18:53.960Z,10.35
2019-04-10T18:21:24.596Z,14.45
2019-04-10T18:23:55.658Z,10.00
2019-04-10T18:26:26.045Z,10.15
2019-04-10T18:28:56.330Z,8.40
2019-04-10T18:31:27.881Z,9.55
2019-04-10T18:33:58.718Z,9.20
2019-04-10T18:36:29.861Z,10.50
2019-04-10T18:39:00.218Z,11.93
2019-04-10T18:41:30.440Z,12.35
2019-04-10T18:44:00.865Z,8.85
2019-04-10T18:46:31.261Z,10.70
2019-04-10T18:49:13.536Z,10.48
2019-04-10T18:51:45.976Z,10.85
2019-04-10T18:54:27.782Z,11.18
2019-04-10T18:56:59.773Z,12.35
2019-04-10T18:59:32.315Z,11.20
2019-04-10T19:02:10.377Z,10.65
2019-04-10T19:04:49.454Z,11.57
2019-04-10T19:07:25.092Z,11.93
2019-04-10T19:10:04.293Z,11.90
2019-04-10T19:12:34.815Z,12.53
2019-04-10T19:15:06.774Z,13.05
2019-04-10T19:17:39.021Z,15.30
2019-04-10T19:20:11.100Z,14.63
2019-04-10T19:22:42.461Z,16.85
2019-04-10T19:25:12.811Z,17.60
2019-04-10T19:27:44.345Z,14.55
2019-04-10T19:30:35.361Z,14.68
2019-04-10T19:33:05.958Z,18.82
2019-04-10T19:35:37.278Z,17.50
2019-04-10T19:38:07.684Z,16.52
2019-04-10T19:40:38.724Z,16.75
2019-04-10T19:43:22.148Z,18.95
2019-04-10T19:45:48.125Z,17.90
2019-04-10T19:48:19.589Z,18.40
2019-04-10T19:50:49.942Z,18.12
2019-04-10T19:53:21.376Z,19.25
2019-04-10T19:55:51.814Z,17.82
2019-04-10T19:58:28.362Z,19.65
2019-04-10T20:00:56.869Z,20.45
2019-04-10T20:06:47.073Z,16.95
2019-04-10T20:28:26.805Z,21.37
2019-04-10T20:34:13.672Z,22.50
2019-04-10T20:36:49.003Z,19.52
2019-04-10T20:50:07.881Z,18.15
2019-04-10T20:52:40.859Z,17.92
2019-04-10T20:55:11.241Z,19.25
2019-04-10T20:57:48.066Z,20.02
2019-04-10T21:03:04.321Z,21.25
2019-04-10T21:05:35.905Z,21.48
2019-04-10T21:08:09.303Z,20.95
2019-04-10T21:10:42.883Z,20.12
2019-04-10T21:26:17.795Z,18.20
2019-04-10T21:28:51.682Z,19.25
2019-04-10T21:31:38.871Z,21.80
2019-04-10T21:34:19.733Z,24.90
2019-04-10T21:36:55.067Z,21.27
2019-04-10T21:39:36.082Z,22.62
2019-04-10T22:59:22.111Z,33.20
2019-04-10T23:08:35.940Z,29.45
2019-04-10T23:17:39.597Z,30.65
2019-04-10T23:20:34.249Z,29.27
2019-04-10T23:23:09.211Z,27.45
2019-04-10T23:25:50.882Z,30.10
